Charata, Argentina
Current Conditions -  °F | °C
As of 12:00 AM on Sunday 21 Dec 2014 (Local Time) from SARE Reporting Station
Broken Clouds Broken Clouds  
Wind Chill: 30°   Ceiling: 10000
Heat Index: 36°   Visibility: 6mi
Dew Point: 25°   Wind: 8mph
Humidity: 74%   Direction: 70°ENE
Pressure: 29.41"   Gusts: NA
Location:  27.22°S, 61.2°W
Report Text: SARE 210300Z 07007KT 9999 SCT025 BKN100 FEW056CB 30/25 Q0996
Loading
Personal Weather Stations






























Interactive Weather Map New forecast layout! Learn more

10-Day Weather Forecast

Advertisements
Track Severe Weather on mobile